createdAt,value
2019-03-18T00:01:03.595Z,99333.48
2019-03-18T00:03:33.156Z,99338.83
2019-03-18T00:06:02.638Z,99340.11
2019-03-18T00:08:32.050Z,99337.89
2019-03-18T00:11:01.411Z,99336.38
2019-03-18T00:13:30.901Z,99332.13
2019-03-18T00:16:00.416Z,99333.31
2019-03-18T00:18:29.791Z,99338.31
2019-03-18T00:20:59.179Z,99328.45
2019-03-18T00:23:28.711Z,99330.72
2019-03-18T00:25:58.190Z,99329.58
2019-03-18T00:28:27.570Z,99332.09
2019-03-18T00:30:56.995Z,99330.81
2019-03-18T00:33:26.472Z,99327.74
2019-03-18T00:35:55.933Z,99324.77
2019-03-18T00:38:25.535Z,99325.52
2019-03-18T00:40:55.009Z,99326.94
2019-03-18T00:43:24.574Z,99318.39
2019-03-18T00:45:54.027Z,99318.44
2019-03-18T00:48:23.514Z,99321.31
2019-03-18T00:50:52.991Z,99315.93
2019-03-18T00:53:22.386Z,99314.70
2019-03-18T00:55:51.954Z,99305.23
2019-03-18T00:58:21.532Z,99305.93
2019-03-18T01:00:51.061Z,99302.84
2019-03-18T01:03:20.463Z,99310.84
2019-03-18T01:05:49.898Z,99308.48
2019-03-18T01:08:19.376Z,99308.72
2019-03-18T01:10:48.886Z,99308.52
2019-03-18T01:13:18.307Z,99302.09
2019-03-18T01:15:47.683Z,99304.80
2019-03-18T01:18:17.171Z,99299.92
2019-03-18T01:20:46.599Z,99300.59
2019-03-18T01:23:16.123Z,99304.18
2019-03-18T01:25:45.636Z,99306.58
2019-03-18T01:28:15.026Z,99303.80
2019-03-18T01:30:44.434Z,99293.23
2019-03-18T01:33:13.964Z,99292.12
2019-03-18T01:35:43.463Z,99294.11
2019-03-18T01:38:12.850Z,99302.37
2019-03-18T01:40:42.274Z,99300.48
2019-03-18T01:43:11.764Z,99305.05
2019-03-18T01:45:41.347Z,99301.61
2019-03-18T01:48:10.749Z,99299.75
2019-03-18T01:50:40.129Z,99308.44
2019-03-18T01:53:09.633Z,99303.86
2019-03-18T01:55:39.164Z,99304.24
2019-03-18T01:58:08.549Z,99304.83
2019-03-18T02:00:39.117Z,99310.58
2019-03-18T02:03:08.572Z,99313.89
2019-03-18T02:05:37.962Z,99312.45
2019-03-18T02:08:07.457Z,99314.73
2019-03-18T02:10:36.971Z,99314.70
2019-03-18T02:13:06.351Z,99314.06
2019-03-18T02:15:35.747Z,99315.91
2019-03-18T02:18:05.440Z,99312.66
2019-03-18T02:20:34.916Z,99310.83
2019-03-18T02:23:04.298Z,99315.45
2019-03-18T02:25:33.697Z,99311.34
2019-03-18T02:28:03.398Z,99318.13
2019-03-18T02:30:32.883Z,99327.30
2019-03-18T02:33:02.246Z,99324.66
2019-03-18T02:35:31.735Z,99336.52
2019-03-18T02:38:01.228Z,99340.23
2019-03-18T02:40:30.609Z,99339.63
2019-03-18T02:43:00.130Z,99340.14
2019-03-18T02:45:29.613Z,99344.13
2019-03-18T03:01:22.250Z,99352.16
2019-03-18T03:03:51.676Z,99346.56
2019-03-18T03:06:21.233Z,99349.44
2019-03-18T03:08:50.839Z,99353.48
2019-03-18T03:11:20.254Z,99344.35
2019-03-18T03:13:49.681Z,99351.11
2019-03-18T03:16:26.208Z,99349.97
2019-03-18T03:18:50.616Z,99353.69
2019-03-18T03:21:20.039Z,99360.41
2019-03-18T03:23:49.445Z,99358.68
2019-03-18T03:26:18.989Z,99364.02
2019-03-18T03:28:48.492Z,99363.55
2019-03-18T03:31:17.882Z,99361.85
2019-03-18T03:33:47.319Z,99367.78
2019-03-18T03:36:16.784Z,99366.50
2019-03-18T03:38:46.303Z,99366.31
2019-03-18T03:41:17.860Z,99368.09
2019-03-18T03:43:46.824Z,99372.97
2019-03-18T03:46:16.308Z,99375.21
2019-03-18T03:48:45.828Z,99380.36
2019-03-18T03:51:15.225Z,99385.89
2019-03-18T03:53:44.612Z,99393.63
2019-03-18T03:56:14.251Z,99395.20
2019-03-18T03:58:43.848Z,99404.01
2019-03-18T04:01:13.246Z,99405.20
2019-03-18T04:03:42.832Z,99395.73
2019-03-18T04:06:12.417Z,99397.58
2019-03-18T04:08:41.898Z,99400.08
2019-03-18T04:11:11.426Z,99396.39
2019-03-18T04:13:40.932Z,99394.82
2019-03-18T04:16:10.344Z,99393.73
2019-03-18T04:18:39.771Z,99394.04
2019-03-18T04:21:09.264Z,99383.25
2019-03-18T04:23:38.763Z,99389.82
2019-03-18T04:26:09.277Z,99388.66
2019-03-18T04:28:38.681Z,99393.66
2019-03-18T04:31:08.167Z,99391.20
2019-03-18T04:33:39.485Z,99394.66
2019-03-18T04:36:09.017Z,99396.25
2019-03-18T04:38:38.414Z,99394.66
2019-03-18T04:41:08.186Z,99398.37
2019-03-18T04:43:37.682Z,99410.74
2019-03-18T04:46:07.355Z,99405.87
2019-03-18T04:48:36.774Z,99417.25
2019-03-18T04:51:06.271Z,99418.28
2019-03-18T04:53:35.648Z,99420.14
2019-03-18T04:56:07.252Z,99421.91
2019-03-18T04:58:36.728Z,99418.08
2019-03-18T05:01:06.487Z,99422.10
2019-03-18T05:03:36.091Z,99424.45
2019-03-18T05:06:05.598Z,99428.49
2019-03-18T05:08:35.098Z,99429.40
2019-03-18T05:11:04.528Z,99427.28
2019-03-18T05:13:33.990Z,99431.08
2019-03-18T05:16:03.497Z,99431.62
2019-03-18T05:18:33.184Z,99435.88
2019-03-18T05:21:02.580Z,99447.65
2019-03-18T05:23:31.965Z,99449.50
2019-03-18T05:26:01.510Z,99437.03
2019-03-18T05:28:31.019Z,99455.00
2019-03-18T05:31:01.422Z,99455.91
2019-03-18T05:33:30.941Z,99453.20
2019-03-18T05:36:00.320Z,99456.42
2019-03-18T05:38:29.758Z,99461.58
2019-03-18T05:40:59.306Z,99463.48
2019-03-18T05:43:28.828Z,99467.13
2019-03-18T05:45:58.223Z,99465.80
2019-03-18T05:48:29.128Z,99461.00
2019-03-18T05:50:58.611Z,99462.70
2019-03-18T05:53:28.028Z,99465.61
2019-03-18T05:55:57.627Z,99464.56
2019-03-18T05:58:27.013Z,99474.13
2019-03-18T06:00:56.506Z,99476.63
2019-03-18T06:03:26.285Z,99470.38
2019-03-18T06:05:55.869Z,99475.75
2019-03-18T06:08:25.240Z,99470.49
2019-03-18T06:10:54.776Z,99468.26
2019-03-18T06:13:24.149Z,99468.95
2019-03-18T06:15:53.658Z,99461.05
2019-03-18T06:18:23.347Z,99457.09
2019-03-18T06:20:52.746Z,99453.50
2019-03-18T06:23:22.134Z,99461.99
2019-03-18T06:25:51.824Z,99460.28
2019-03-18T06:28:21.340Z,99465.22
2019-03-18T06:30:50.745Z,99463.64
2019-03-18T06:33:20.220Z,99465.28
2019-03-18T06:35:49.711Z,99462.56
2019-03-18T06:38:19.193Z,99460.41
2019-03-18T06:40:48.769Z,99458.78
2019-03-18T06:43:18.161Z,99464.50
2019-03-18T06:45:47.628Z,99460.41
2019-03-18T06:48:17.296Z,99463.78
2019-03-18T06:50:46.663Z,99461.02
2019-03-18T06:53:16.130Z,99461.35
2019-03-18T06:55:45.548Z,99460.36
2019-03-18T06:58:14.909Z,99462.48
2019-03-18T07:00:44.374Z,99460.92
2019-03-18T07:03:14.037Z,99460.14
2019-03-18T07:05:46.124Z,99455.10
2019-03-18T07:08:14.516Z,99449.55
2019-03-18T07:10:44.016Z,99446.36
2019-03-18T07:13:13.481Z,99443.63
2019-03-18T07:15:42.857Z,99445.33
2019-03-18T07:18:18.034Z,99438.91
2019-03-18T07:20:43.631Z,99440.58
2019-03-18T07:23:13.101Z,99445.89
2019-03-18T07:25:42.524Z,99444.09
2019-03-18T07:28:11.890Z,99440.92
2019-03-18T07:30:41.356Z,99442.66
2019-03-18T07:33:10.955Z,99437.03
2019-03-18T07:35:40.415Z,99437.30
2019-03-18T07:38:09.877Z,99437.08
2019-03-18T07:40:39.275Z,99432.98
2019-03-18T07:43:08.703Z,99435.21
2019-03-18T07:45:38.165Z,99433.15
2019-03-18T07:48:07.680Z,99419.42
2019-03-18T07:50:37.054Z,99421.42
2019-03-18T07:53:06.420Z,99421.66
2019-03-18T07:55:35.921Z,99412.40
2019-03-18T07:58:05.395Z,99409.50
2019-03-18T08:00:34.766Z,99405.58
2019-03-18T08:03:04.256Z,99403.33
2019-03-18T08:05:33.718Z,99399.94
2019-03-18T08:08:03.203Z,99394.86
2019-03-18T08:10:32.620Z,99391.25
2019-03-18T08:13:02.822Z,99390.27
2019-03-18T08:15:32.187Z,99387.30
2019-03-18T08:18:02.537Z,99389.05
2019-03-18T08:20:32.010Z,99386.02
2019-03-18T08:23:01.488Z,99388.60
2019-03-18T08:25:31.016Z,99386.42
2019-03-18T08:28:00.380Z,99385.73
2019-03-18T08:30:29.854Z,99375.37
2019-03-18T08:32:59.367Z,99376.48
2019-03-18T08:35:28.819Z,99373.45
2019-03-18T08:37:58.207Z,99371.53
2019-03-18T08:40:27.868Z,99367.28
2019-03-18T08:42:57.346Z,99361.71
2019-03-18T08:45:26.714Z,99368.87
2019-03-18T08:47:56.138Z,99359.88
2019-03-18T08:50:25.608Z,99359.39
2019-03-18T08:52:55.090Z,99350.94
2019-03-18T08:55:24.656Z,99351.05
2019-03-18T08:57:54.018Z,99358.11
2019-03-18T09:00:56.660Z,99342.56
2019-03-18T09:03:26.139Z,99348.62
2019-03-18T09:05:55.551Z,99342.22
2019-03-18T09:08:26.550Z,99344.13
2019-03-18T09:10:56.175Z,99340.42
2019-03-18T09:13:26.683Z,99333.97
2019-03-18T09:15:56.022Z,99335.97
2019-03-18T09:18:25.414Z,99325.97
2019-03-18T09:20:54.919Z,99326.94
2019-03-18T09:23:24.379Z,99324.72
2019-03-18T09:25:53.746Z,99324.90
2019-03-18T09:28:23.144Z,99325.52
2019-03-18T09:30:52.614Z,99326.16
2019-03-18T09:33:21.996Z,99320.69
2019-03-18T09:35:51.496Z,99317.17
2019-03-18T09:38:20.991Z,99315.87
2019-03-18T09:40:50.515Z,99315.30
2019-03-18T09:43:20.002Z,99318.25
2019-03-18T09:45:49.487Z,99318.63
2019-03-18T09:48:18.972Z,99307.66
2019-03-18T09:50:48.414Z,99306.75
2019-03-18T09:53:17.801Z,99303.66
2019-03-18T09:55:47.276Z,99302.30
2019-03-18T09:58:16.787Z,99299.10
2019-03-18T10:00:46.157Z,99299.41
2019-03-18T10:03:15.627Z,99290.15
2019-03-18T10:05:45.285Z,99283.09
2019-03-18T10:08:14.760Z,99288.55
2019-03-18T10:10:44.136Z,99291.86
2019-03-18T10:13:13.644Z,99277.84
2019-03-18T10:15:43.032Z,99277.84
2019-03-18T10:18:12.414Z,99265.11
2019-03-18T10:20:41.923Z,99265.11
2019-03-18T10:23:11.410Z,99271.52
2019-03-18T10:25:40.774Z,99271.99
2019-03-18T10:28:10.182Z,99259.15
2019-03-18T10:30:39.632Z,99262.77
2019-03-18T10:33:09.101Z,99268.14
2019-03-18T10:35:38.501Z,99263.93
2019-03-18T10:38:07.863Z,99261.91
2019-03-18T10:40:37.317Z,99261.79
2019-03-18T10:43:06.826Z,99260.02
2019-03-18T10:45:36.188Z,99255.45
2019-03-18T10:48:05.563Z,99249.16
2019-03-18T10:50:35.109Z,99255.28
2019-03-18T10:53:04.477Z,99246.61
2019-03-18T10:55:33.950Z,99243.41
2019-03-18T10:58:03.452Z,99240.30
2019-03-18T11:00:32.832Z,99236.84
2019-03-18T11:03:02.187Z,99231.45
2019-03-18T11:05:31.861Z,99218.06
2019-03-18T11:08:01.394Z,99225.33
2019-03-18T11:10:30.749Z,99213.10
2019-03-18T11:13:00.165Z,99212.03
2019-03-18T11:15:29.627Z,99208.14
2019-03-18T11:17:59.121Z,99207.06
2019-03-18T11:20:28.536Z,99206.64
2019-03-18T11:22:57.903Z,99201.34
2019-03-18T11:25:27.384Z,99194.45
2019-03-18T11:27:57.043Z,99186.80
2019-03-18T11:30:26.409Z,99191.47
2019-03-18T11:32:55.883Z,99178.37
2019-03-18T11:35:25.434Z,99177.47
2019-03-18T11:37:54.815Z,99167.98
2019-03-18T11:40:24.290Z,99163.91
2019-03-18T11:42:54.057Z,99160.48
2019-03-18T11:45:23.420Z,99153.06
2019-03-18T11:47:52.811Z,99157.97
2019-03-18T11:50:22.495Z,99149.40
2019-03-18T11:52:51.980Z,99142.42
2019-03-18T11:55:21.422Z,99139.84
2019-03-18T11:57:50.986Z,99139.39
2019-03-18T12:00:20.569Z,99132.91
2019-03-18T12:02:50.034Z,99128.89
2019-03-18T12:05:19.543Z,99122.85
2019-03-18T12:07:48.919Z,99118.59
2019-03-18T12:10:18.487Z,99116.06
2019-03-18T12:12:47.892Z,99113.80
2019-03-18T12:15:17.470Z,99112.91
2019-03-18T12:17:47.035Z,99103.46
2019-03-18T12:20:24.223Z,99104.35
2019-03-18T12:22:47.858Z,99091.28
2019-03-18T12:25:17.327Z,99094.51
2019-03-18T12:27:46.844Z,99090.36
2019-03-18T12:30:17.742Z,99083.98
2019-03-18T12:32:47.215Z,99070.70
2019-03-18T12:35:16.784Z,99070.50
2019-03-18T12:37:46.358Z,99071.70
2019-03-18T12:40:15.760Z,99068.52
2019-03-18T12:42:45.577Z,99066.18
2019-03-18T12:45:15.178Z,99060.97
2019-03-18T12:47:44.748Z,99055.77
2019-03-18T12:50:15.551Z,99053.09
2019-03-18T12:52:45.102Z,99049.73
2019-03-18T12:55:14.468Z,99052.58
2019-03-18T12:57:43.913Z,99040.46
2019-03-18T13:00:16.719Z,99050.39
2019-03-18T13:02:46.278Z,99046.34
2019-03-18T13:05:15.888Z,99039.28
2019-03-18T13:07:45.283Z,99035.91
2019-03-18T13:10:15.486Z,99033.39
2019-03-18T13:12:45.103Z,99033.73
2019-03-18T13:15:15.589Z,99032.37
2019-03-18T13:17:45.109Z,99018.06
2019-03-18T13:20:15.069Z,99012.05
2019-03-18T13:22:44.601Z,99016.59
2019-03-18T13:25:14.230Z,99013.20
2019-03-18T13:27:43.640Z,99001.75
2019-03-18T13:30:15.488Z,99003.59
2019-03-18T13:32:44.971Z,98995.64
2019-03-18T13:35:14.875Z,98992.11
2019-03-18T13:37:44.462Z,98992.92
2019-03-18T13:40:15.327Z,98996.28
2019-03-18T13:42:44.940Z,98985.98
2019-03-18T13:45:15.237Z,98980.75
2019-03-18T13:47:44.720Z,98978.41
2019-03-18T13:50:15.392Z,98974.16
2019-03-18T13:52:44.762Z,98968.27
2019-03-18T13:55:14.224Z,98973.14
2019-03-18T13:57:43.730Z,98972.39
2019-03-18T14:00:14.383Z,98973.08
2019-03-18T14:02:43.938Z,98961.64
2019-03-18T14:05:13.675Z,98963.97
2019-03-18T14:07:43.238Z,98957.73
2019-03-18T14:10:13.752Z,98951.69
2019-03-18T14:12:43.311Z,98946.69
2019-03-18T14:15:14.602Z,98945.09
2019-03-18T14:17:44.074Z,98941.75
2019-03-18T14:20:14.561Z,98937.62
2019-03-18T14:22:44.130Z,98936.64
2019-03-18T14:25:13.808Z,98938.60
2019-03-18T14:27:43.636Z,98940.23
2019-03-18T14:30:15.098Z,98934.92
2019-03-18T14:32:44.597Z,98935.81
2019-03-18T14:35:14.476Z,98934.69
2019-03-18T14:37:44.020Z,98932.09
2019-03-18T14:40:14.061Z,98936.92
2019-03-18T14:42:43.658Z,98931.43
2019-03-18T14:45:15.477Z,98922.59
2019-03-18T14:47:44.991Z,98925.61
2019-03-18T14:50:14.732Z,98923.24
2019-03-18T14:52:44.320Z,98917.61
2019-03-18T14:55:13.742Z,98923.84
2019-03-18T14:57:43.187Z,98921.79
2019-03-18T15:00:15.996Z,98920.31
2019-03-18T15:02:45.467Z,98921.34
2019-03-18T15:05:15.141Z,98916.83
2019-03-18T15:07:44.593Z,98924.92
2019-03-18T15:10:14.411Z,98921.89
2019-03-18T15:12:43.950Z,98925.63
2019-03-18T15:15:14.793Z,98922.09
2019-03-18T15:17:44.188Z,98926.33
2019-03-18T15:20:13.909Z,98927.07
2019-03-18T15:22:43.392Z,98927.58
2019-03-18T15:25:17.172Z,98918.00
2019-03-18T15:27:46.597Z,98926.98
2019-03-18T15:30:17.648Z,98922.97
2019-03-18T15:32:47.046Z,98929.89
2019-03-18T15:35:16.649Z,98919.59
2019-03-18T15:37:46.142Z,98925.86
2019-03-18T15:40:16.356Z,98923.20
2019-03-18T15:42:45.941Z,98926.93
2019-03-18T15:45:16.393Z,98923.14
2019-03-18T15:47:45.877Z,98925.00
2019-03-18T15:50:16.786Z,98925.00
2019-03-18T15:52:46.164Z,98924.52
2019-03-18T15:55:15.750Z,98929.61
2019-03-18T15:57:45.520Z,98927.87
2019-03-18T16:00:16.581Z,98929.23
2019-03-18T16:02:45.964Z,98935.13
2019-03-18T16:05:15.529Z,98936.98
2019-03-18T16:07:45.016Z,98945.22
2019-03-18T16:10:14.953Z,98947.08
2019-03-18T16:12:44.669Z,98939.19
2019-03-18T16:15:14.353Z,98944.73
2019-03-18T16:17:43.748Z,98942.08
2019-03-18T16:20:14.206Z,98946.96
2019-03-18T16:22:43.645Z,98951.34
2019-03-18T16:25:13.208Z,98953.36
2019-03-18T16:27:42.821Z,98959.25
2019-03-18T16:30:13.643Z,98957.37
2019-03-18T16:32:43.107Z,98963.89
2019-03-18T16:35:15.699Z,98959.00
2019-03-18T16:37:44.154Z,98966.88
2019-03-18T16:40:13.842Z,98966.17
2019-03-18T16:42:43.396Z,98968.79
2019-03-18T16:45:13.677Z,98966.20
2019-03-18T16:47:43.344Z,98968.70
2019-03-18T16:50:14.397Z,98970.00
2019-03-18T16:52:43.902Z,98966.89
2019-03-18T16:55:13.690Z,98972.23
2019-03-18T16:57:43.213Z,98970.05
2019-03-18T17:00:14.880Z,98978.98
2019-03-18T17:02:44.670Z,98981.11
2019-03-18T17:05:14.333Z,98986.05
2019-03-18T17:07:43.807Z,98990.95
2019-03-18T17:10:13.469Z,98993.87
2019-03-18T17:12:42.947Z,99007.22
2019-03-18T17:15:12.527Z,99006.95
2019-03-18T17:17:42.193Z,99007.42
2019-03-18T17:20:12.336Z,99006.99
2019-03-18T17:22:48.945Z,99012.51
2019-03-18T17:25:15.054Z,99014.50
2019-03-18T17:27:44.514Z,99017.58
2019-03-18T17:30:16.029Z,99009.08
2019-03-18T17:32:45.587Z,99010.61
2019-03-18T17:35:16.146Z,99016.72
2019-03-18T17:37:45.522Z,99018.30
2019-03-18T17:40:15.130Z,99019.74
2019-03-18T17:42:44.755Z,99032.52
2019-03-18T17:45:14.448Z,99034.87
2019-03-18T17:47:43.972Z,99036.70
2019-03-18T17:50:15.653Z,99039.11
2019-03-18T17:52:45.158Z,99044.03
2019-03-18T17:55:14.584Z,99041.04
2019-03-18T17:57:44.013Z,99043.31
2019-03-18T18:00:17.867Z,99041.56
2019-03-18T18:02:47.402Z,99049.80
2019-03-18T18:05:16.780Z,99050.47
2019-03-18T18:07:46.172Z,99049.61
2019-03-18T18:10:15.713Z,99050.25
2019-03-18T18:12:45.116Z,99054.13
2019-03-18T18:15:14.613Z,99058.22
2019-03-18T18:17:44.292Z,99057.52
2019-03-18T18:20:13.700Z,99063.40
2019-03-18T18:22:43.121Z,99067.73
2019-03-18T18:25:12.674Z,99069.20
2019-03-18T18:27:42.692Z,99066.67
2019-03-18T18:30:12.327Z,99076.70
2019-03-18T18:32:41.877Z,99074.48
2019-03-18T18:35:11.472Z,99083.56
2019-03-18T18:37:41.059Z,99080.67
2019-03-18T18:40:11.450Z,99079.80
2019-03-18T18:42:40.853Z,99084.03
2019-03-18T18:45:11.103Z,99086.52
2019-03-18T18:47:40.692Z,99101.61
2019-03-18T18:50:10.388Z,99093.84
2019-03-18T18:52:39.911Z,99092.95
2019-03-18T18:55:09.775Z,99094.06
2019-03-18T18:57:39.145Z,99096.23
2019-03-18T19:00:10.970Z,99097.86
2019-03-18T19:02:40.653Z,99104.80
2019-03-18T19:05:10.713Z,99106.53
2019-03-18T19:07:40.098Z,99107.00
2019-03-18T19:10:10.747Z,99116.39
2019-03-18T19:12:40.464Z,99109.77
2019-03-18T19:15:12.686Z,99110.27
2019-03-18T19:17:42.139Z,99119.63
2019-03-18T19:20:11.895Z,99119.17
2019-03-18T19:22:41.398Z,99124.50
2019-03-18T19:25:12.176Z,99122.48
2019-03-18T19:27:42.264Z,99129.37
2019-03-18T19:30:18.738Z,99129.98
2019-03-18T19:32:48.200Z,99131.08
2019-03-18T19:35:19.277Z,99136.77
2019-03-18T19:37:50.222Z,99138.36
2019-03-18T19:40:19.733Z,99143.80
2019-03-18T19:42:49.199Z,99145.51
2019-03-18T19:45:18.619Z,99147.05
2019-03-18T19:47:48.008Z,99149.95
2019-03-18T19:50:18.335Z,99147.78
2019-03-18T19:52:47.832Z,99148.25
2019-03-18T19:55:17.205Z,99152.61
2019-03-18T19:57:46.581Z,99150.20
2019-03-18T20:00:17.899Z,99147.64
2019-03-18T20:02:47.405Z,99146.94
2019-03-18T20:05:18.923Z,99150.31
2019-03-18T20:07:47.942Z,99157.30
2019-03-18T20:10:17.481Z,99157.58
2019-03-18T20:12:46.851Z,99164.21
2019-03-18T20:15:16.417Z,99165.76
2019-03-18T20:17:46.035Z,99166.25
2019-03-18T20:20:15.431Z,99168.28
2019-03-18T20:22:44.789Z,99178.65
2019-03-18T20:25:14.397Z,99180.95
2019-03-18T20:27:43.827Z,99177.89
2019-03-18T20:30:15.110Z,99183.66
2019-03-18T20:32:44.611Z,99177.25
2019-03-18T20:35:14.579Z,99183.17
2019-03-18T20:37:44.156Z,99188.37
2019-03-18T20:40:14.047Z,99196.09
2019-03-18T20:42:43.664Z,99186.87
2019-03-18T20:45:14.702Z,99200.47
2019-03-18T20:47:44.405Z,99196.49
2019-03-18T20:50:15.189Z,99200.48
2019-03-18T20:52:44.772Z,99193.19
2019-03-18T20:55:14.357Z,99204.28
2019-03-18T20:57:43.751Z,99208.95
2019-03-18T21:00:14.706Z,99208.37
2019-03-18T21:02:44.244Z,99220.66
2019-03-18T21:05:13.605Z,99212.58
2019-03-18T21:07:42.983Z,99208.22
2019-03-18T21:10:12.749Z,99212.66
2019-03-18T21:12:42.217Z,99215.91
2019-03-18T21:15:11.613Z,99219.32
2019-03-18T21:17:41.033Z,99209.78
2019-03-18T21:20:12.743Z,99204.70
2019-03-18T21:22:42.219Z,99205.22
2019-03-18T21:25:11.878Z,99206.82
2019-03-18T21:27:41.229Z,99213.08
2019-03-18T21:30:11.947Z,99215.78
2019-03-18T21:32:41.655Z,99213.31
2019-03-18T21:35:11.392Z,99214.05
2019-03-18T21:37:40.867Z,99216.73
2019-03-18T21:40:11.515Z,99220.81
2019-03-18T21:42:40.902Z,99223.02
2019-03-18T21:45:12.679Z,99227.28
2019-03-18T21:47:42.214Z,99233.22
2019-03-18T21:50:12.820Z,99232.31
2019-03-18T21:52:42.229Z,99227.86
2019-03-18T21:55:12.037Z,99227.38
2019-03-18T21:57:41.500Z,99232.74
2019-03-18T22:00:15.516Z,99232.22
2019-03-18T22:02:44.919Z,99238.84
2019-03-18T22:05:14.609Z,99237.89
2019-03-18T22:07:44.179Z,99242.12
2019-03-18T22:10:13.763Z,99244.41
2019-03-18T22:12:43.253Z,99242.73
2019-03-18T22:15:12.898Z,99247.11
2019-03-18T22:17:42.544Z,99241.65
2019-03-18T22:20:14.242Z,99242.71
2019-03-18T22:22:43.733Z,99245.52
2019-03-18T22:25:13.460Z,99241.34
2019-03-18T22:27:42.936Z,99243.80
2019-03-18T22:30:12.703Z,99248.09
2019-03-18T22:32:42.110Z,99250.38
2019-03-18T22:35:11.706Z,99252.34
2019-03-18T22:37:41.178Z,99254.72
2019-03-18T22:40:11.093Z,99252.62
2019-03-18T22:42:40.480Z,99254.89
2019-03-18T22:45:10.488Z,99254.04
2019-03-18T22:47:39.984Z,99257.37
2019-03-18T22:50:09.383Z,99261.34
2019-03-18T22:52:39.235Z,99262.77
2019-03-18T22:55:09.173Z,99268.70
2019-03-18T22:57:38.902Z,99258.48
2019-03-18T23:00:15.818Z,99269.92
2019-03-18T23:02:45.308Z,99267.17
2019-03-18T23:05:20.770Z,99270.23
2019-03-18T23:07:50.356Z,99274.88
2019-03-18T23:10:19.948Z,99267.95
2019-03-18T23:12:49.531Z,99266.47
2019-03-18T23:15:18.936Z,99270.98
2019-03-18T23:17:48.344Z,99279.70
2019-03-18T23:20:17.977Z,99279.80
2019-03-18T23:22:47.457Z,99284.23
2019-03-18T23:25:16.820Z,99283.77
2019-03-18T23:27:46.233Z,99283.86
2019-03-18T23:30:15.784Z,99286.02
2019-03-18T23:32:45.147Z,99288.58
2019-03-18T23:35:14.757Z,99287.83
2019-03-18T23:37:44.240Z,99284.05
2019-03-18T23:40:13.645Z,99289.81
2019-03-18T23:42:43.228Z,99288.77
2019-03-18T23:45:13.148Z,99288.07
2019-03-18T23:47:42.645Z,99285.23
2019-03-18T23:50:12.203Z,99290.44
2019-03-18T23:52:41.605Z,99282.53
2019-03-18T23:55:19.201Z,99289.90
2019-03-18T23:57:44.120Z,99291.61
